createdAt,value
2022-11-28T00:01:45.643Z,101051.23
2022-11-28T00:04:14.399Z,101047.20
2022-11-28T00:06:45.499Z,101042.88
2022-11-28T00:09:14.798Z,101039.27
2022-11-28T00:11:44.567Z,101037.89
2022-11-28T00:14:14.006Z,101037.88
2022-11-28T00:16:41.664Z,101038.91
2022-11-28T00:19:11.962Z,101037.09
2022-11-28T00:21:41.504Z,101034.37
2022-11-28T00:24:09.797Z,101033.01
2022-11-28T00:26:40.271Z,101034.94
2022-11-28T00:29:09.113Z,101032.67
2022-11-28T00:31:43.817Z,101029.82
2022-11-28T00:34:14.074Z,101029.79
2022-11-28T00:36:45.191Z,101033.14
2022-11-28T00:39:14.579Z,101035.66
2022-11-28T00:41:43.583Z,101035.85
2022-11-28T00:44:11.748Z,101033.48
2022-11-28T00:46:39.454Z,101032.85
2022-11-28T00:49:08.136Z,101035.17
2022-11-28T00:51:36.053Z,101037.59
2022-11-28T00:54:05.754Z,101037.23
2022-11-28T00:56:37.175Z,101030.05
2022-11-28T00:59:05.306Z,101032.91
2022-11-28T01:01:36.838Z,101033.54
2022-11-28T01:04:08.146Z,101030.38
2022-11-28T01:06:39.653Z,101032.16
2022-11-28T01:09:12.052Z,101029.67
2022-11-28T01:11:40.813Z,101030.35
2022-11-28T01:14:10.292Z,101028.06
2022-11-28T01:16:38.758Z,101023.56
2022-11-28T01:19:06.861Z,101020.41
2022-11-28T01:21:35.004Z,101019.29
2022-11-28T01:24:02.684Z,101014.27
2022-11-28T01:26:30.582Z,101014.12
2022-11-28T01:28:59.564Z,101008.54
2022-11-28T01:31:29.127Z,101010.45
2022-11-28T01:33:57.659Z,101003.56
2022-11-28T01:36:26.276Z,101001.99
2022-11-28T01:38:54.453Z,100996.23
2022-11-28T01:41:26.059Z,100995.71
2022-11-28T01:44:04.357Z,100992.71
2022-11-28T01:46:33.148Z,100994.41
2022-11-28T01:49:07.587Z,100992.75
2022-11-28T01:51:36.427Z,100987.63
2022-11-28T01:54:04.969Z,100982.23
2022-11-28T01:56:41.816Z,100982.44
2022-11-28T01:59:13.286Z,100982.29
2022-11-28T02:01:41.145Z,100982.18
2022-11-28T02:04:09.161Z,100982.56
2022-11-28T02:06:36.918Z,100977.09
2022-11-28T02:09:09.675Z,100975.23
2022-11-28T02:12:09.221Z,100969.13
2022-11-28T02:14:55.875Z,100966.73
2022-11-28T02:17:38.785Z,100968.70
2022-11-28T02:20:23.409Z,100969.50
2022-11-28T02:23:14.461Z,100968.77
2022-11-28T02:26:04.352Z,100966.55
2022-11-28T02:29:03.948Z,100966.15
2022-11-28T02:31:54.335Z,100957.35
2022-11-28T02:34:38.011Z,100960.04
2022-11-28T02:37:20.444Z,100956.70
2022-11-28T02:40:01.230Z,100957.77
2022-11-28T02:42:47.741Z,100955.59
2022-11-28T02:45:38.072Z,100955.04
2022-11-28T02:48:37.670Z,100958.02
2022-11-28T02:51:27.766Z,100952.99
2022-11-28T02:53:57.175Z,100952.45
2022-11-28T02:56:25.989Z,100956.63
2022-11-28T02:58:54.168Z,100953.18
2022-11-28T03:01:30.730Z,100951.73
2022-11-28T03:04:07.507Z,100950.06
2022-11-28T03:07:04.657Z,100948.80
2022-11-28T03:09:48.288Z,100946.40
2022-11-28T03:12:35.667Z,100945.18
2022-11-28T03:15:09.238Z,100947.55
2022-11-28T03:17:44.136Z,100945.84
2022-11-28T03:20:24.267Z,100939.87
2022-11-28T03:23:23.881Z,100937.49
2022-11-28T03:25:59.079Z,100941.48
2022-11-28T03:28:33.309Z,100942.63
2022-11-28T03:31:03.912Z,100943.09
2022-11-28T03:33:35.703Z,100943.42
2022-11-28T03:36:15.768Z,100939.61
2022-11-28T03:38:48.184Z,100937.80
2022-11-28T03:41:26.976Z,100938.58
2022-11-28T03:43:58.179Z,100939.91
2022-11-28T03:46:33.975Z,100937.18
2022-11-28T03:49:03.961Z,100932.30
2022-11-28T03:51:35.856Z,100927.27
2022-11-28T03:54:19.700Z,100935.42
2022-11-28T03:57:06.241Z,100926.42
2022-11-28T03:59:44.909Z,100924.69
2022-11-28T04:02:21.804Z,100927.86
2022-11-28T04:05:00.557Z,100925.71
2022-11-28T04:07:39.385Z,100925.40
2022-11-28T04:10:23.522Z,100923.54
2022-11-28T04:12:54.859Z,100925.45
2022-11-28T04:15:48.579Z,100923.14
2022-11-28T04:18:48.122Z,100927.19
2022-11-28T04:21:47.721Z,100925.09
2022-11-28T04:24:20.877Z,100918.15
2022-11-28T04:26:54.532Z,100919.59
2022-11-28T04:29:23.758Z,100912.27
2022-11-28T04:31:56.630Z,100913.21
2022-11-28T04:34:26.647Z,100913.33
2022-11-28T04:36:58.876Z,100911.83
2022-11-28T04:39:29.223Z,100910.73
2022-11-28T04:42:09.262Z,100908.49
2022-11-28T04:45:00.146Z,100911.20
2022-11-28T04:47:28.917Z,100908.21
2022-11-28T04:49:56.770Z,100911.06
2022-11-28T04:52:39.072Z,100911.45
2022-11-28T04:55:32.546Z,100914.59
2022-11-28T04:58:11.323Z,100912.37
2022-11-28T05:00:39.856Z,100915.59
2022-11-28T05:03:09.497Z,100911.94
2022-11-28T05:05:46.534Z,100918.60
2022-11-28T05:08:15.033Z,100919.33
2022-11-28T05:10:42.761Z,100918.59
2022-11-28T05:13:10.559Z,100919.12
2022-11-28T05:15:38.283Z,100917.97
2022-11-28T05:18:06.160Z,100916.39
2022-11-28T05:20:34.226Z,100914.10
2022-11-28T05:23:01.932Z,100909.35
2022-11-28T05:25:29.613Z,100905.34
2022-11-28T05:27:57.215Z,100902.79
2022-11-28T05:30:24.875Z,100900.50
2022-11-28T05:32:52.797Z,100904.73
2022-11-28T05:35:20.466Z,100900.92
2022-11-28T05:37:48.061Z,100903.17
2022-11-28T05:40:15.785Z,100906.86
2022-11-28T05:42:43.403Z,100905.62
2022-11-28T05:45:11.170Z,100904.64
2022-11-28T05:47:38.751Z,100904.80
2022-11-28T05:50:08.010Z,100902.39
2022-11-28T05:52:35.611Z,100898.36
2022-11-28T05:55:03.879Z,100900.15
2022-11-28T05:57:32.845Z,100898.91
2022-11-28T06:00:00.498Z,100897.17
2022-11-28T06:02:28.917Z,100893.66
2022-11-28T06:04:57.685Z,100893.52
2022-11-28T06:07:25.950Z,100894.41
2022-11-28T06:09:53.674Z,100896.29
2022-11-28T06:12:21.300Z,100894.58
2022-11-28T06:14:49.005Z,100898.85
2022-11-28T06:17:16.639Z,100900.29
2022-11-28T06:19:44.604Z,100899.61
2022-11-28T06:22:13.206Z,100904.48
2022-11-28T06:24:41.593Z,100904.80
2022-11-28T06:27:10.850Z,100904.58
2022-11-28T06:29:39.067Z,100901.71
2022-11-28T06:32:07.252Z,100904.95
2022-11-28T06:34:41.165Z,100907.34
2022-11-28T06:37:12.031Z,100908.70
2022-11-28T06:39:45.198Z,100905.94
2022-11-28T06:42:16.072Z,100908.45
2022-11-28T06:44:45.909Z,100906.24
2022-11-28T06:50:11.136Z,100907.92
2022-11-28T06:52:38.800Z,100908.91
2022-11-28T06:55:06.626Z,100906.77
2022-11-28T06:57:35.605Z,100906.63
2022-11-28T07:00:04.023Z,100907.52
2022-11-28T07:02:32.417Z,100913.40
2022-11-28T07:05:00.098Z,100908.27
2022-11-28T07:07:27.814Z,100908.60
2022-11-28T07:09:55.419Z,100900.53
2022-11-28T07:12:23.114Z,100899.86
2022-11-28T07:14:53.764Z,100900.09
2022-11-28T07:17:21.400Z,100896.95
2022-11-28T07:19:54.721Z,100900.53
2022-11-28T07:22:23.062Z,100898.78
2022-11-28T07:24:52.297Z,100900.29
2022-11-28T07:27:23.125Z,100899.13
2022-11-28T07:29:50.794Z,100897.83
2022-11-28T07:32:18.499Z,100901.42
2022-11-28T07:34:49.941Z,100902.38
2022-11-28T07:37:17.883Z,100900.56
2022-11-28T07:39:45.594Z,100904.62
2022-11-28T07:42:13.312Z,100907.17
2022-11-28T07:44:40.931Z,100908.06
2022-11-28T07:47:08.803Z,100904.42
2022-11-28T07:49:36.683Z,100903.81
2022-11-28T07:52:04.514Z,100903.31
2022-11-28T07:54:32.374Z,100901.39
2022-11-28T07:57:15.681Z,100901.16
2022-11-28T07:59:46.824Z,100901.31
2022-11-28T08:02:20.624Z,100903.15
2022-11-28T08:08:29.037Z,100899.92
2022-11-28T08:11:02.073Z,100900.63
2022-11-28T08:13:30.150Z,100898.64
2022-11-28T08:15:58.161Z,100902.23
2022-11-28T08:18:26.109Z,100898.54
2022-11-28T08:21:03.702Z,100898.50
2022-11-28T08:23:34.740Z,100898.80
2022-11-28T08:26:09.414Z,100899.34
2022-11-28T08:28:37.664Z,100897.23
2022-11-28T08:31:25.150Z,100899.98
2022-11-28T08:33:58.059Z,100898.79
2022-11-28T08:36:28.330Z,100899.89
2022-11-28T08:39:22.377Z,100897.13
2022-11-28T08:41:48.135Z,100894.65
2022-11-28T08:44:23.783Z,100895.20
2022-11-28T08:47:42.766Z,100893.71
2022-11-28T08:50:10.388Z,100889.81
2022-11-28T08:52:38.317Z,100894.17
2022-11-28T08:55:06.478Z,100892.20
2022-11-28T08:57:34.051Z,100891.56
2022-11-28T09:00:02.047Z,100888.02
